Time;durP1;ratioP1;P1;durP2;ratioP2;P2;SDS_P1;SDS_P2;PMS_P1;PMS_P2;Temp;Humidity;BMP_temperature;BMP_pressure;BME280_temperature;BME280_humidity;BME280_pressure;Samples;Min_cycle;Max_cycle;Signal;HPM_P1;HPM_P2
2021/04/20 00:00:18;;;;;;;;;;;4.70;99.90;;;;;;5054379;28;19952;-77
2021/04/20 00:02:44;;;;;;;;;;;4.70;99.90;;;;;;5053022;28;19908;-77
2021/04/20 00:05:12;;;;;;;;;;;4.70;99.90;;;;;;5052854;28;19955;-77
2021/04/20 00:07:38;;;;;;;;;;;4.70;99.90;;;;;;5053160;28;19948;-77
2021/04/20 00:10:10;;;;;;;;;;;4.70;99.90;;;;;;5052942;28;20387;-78
2021/04/20 00:12:36;;;;;;;;;;;4.60;99.90;;;;;;5054056;28;19912;-77
2021/04/20 00:15:07;;;;;;;;;;;4.60;99.90;;;;;;5052388;28;19962;-77
2021/04/20 00:17:32;;;;;;;;;;;4.60;99.90;;;;;;5052839;28;19984;-77
2021/04/20 00:19:58;;;;;;;10.25;6.93;;;4.60;99.90;;;;;;5052303;28;19916;-77
2021/04/20 00:22:23;;;;;;;;;;;4.70;99.90;;;;;;5052455;28;20476;-77
2021/04/20 00:24:49;;;;;;;;;;;4.70;99.90;;;;;;5052096;28;19935;-77
2021/04/20 00:27:14;;;;;;;;;;;4.70;99.90;;;;;;5052652;28;20364;-77
2021/04/20 00:29:40;;;;;;;;;;;4.70;99.90;;;;;;5052397;28;19909;-77
2021/04/20 00:32:05;;;;;;;;;;;4.80;99.90;;;;;;5052589;28;19912;-77
2021/04/20 00:34:31;;;;;;;;;;;4.80;99.90;;;;;;5051548;28;20365;-77
2021/04/20 00:36:56;;;;;;;;;;;4.80;99.90;;;;;;5052416;28;19909;-77
2021/04/20 00:39:22;;;;;;;;;;;4.80;99.90;;;;;;5052446;28;19967;-77
2021/04/20 00:41:59;;;;;;;;;;;4.70;99.90;;;;;;5052321;28;20264;-77
2021/04/20 00:44:24;;;;;;;;;;;4.70;99.90;;;;;;5051910;28;19904;-77
2021/04/20 00:46:50;;;;;;;;;;;4.50;99.90;;;;;;5053403;28;19905;-77
2021/04/20 00:49:15;;;;;;;;;;;4.50;99.90;;;;;;5052117;28;19912;-77
2021/04/20 00:51:41;;;;;;;;;;;4.50;99.90;;;;;;5051896;28;20331;-77
2021/04/20 00:54:06;;;;;;;;;;;4.40;99.90;;;;;;5052918;28;19954;-77
2021/04/20 00:56:31;;;;;;;;;;;4.40;99.90;;;;;;5052181;28;19905;-77
2021/04/20 00:58:57;;;;;;;;;;;4.40;99.90;;;;;;5051871;28;19996;-77
2021/04/20 01:01:22;;;;;;;;;;;4.40;99.90;;;;;;5051845;28;20371;-77
2021/04/20 01:03:48;;;;;;;;;;;4.30;99.90;;;;;;5052948;28;20280;-78
2021/04/20 01:06:13;;;;;;;;;;;4.40;99.90;;;;;;5053453;28;19948;-77
2021/04/20 01:08:40;;;;;;;;;;;4.40;99.90;;;;;;5051922;28;20364;-77
2021/04/20 01:11:06;;;;;;;;;;;4.30;99.90;;;;;;5051780;28;19919;-78
2021/04/20 01:13:32;;;;;;;;;;;4.30;99.90;;;;;;5051816;28;19905;-77
2021/04/20 01:15:58;;;;;;;;;;;4.30;99.90;;;;;;5051319;28;19904;-77
2021/04/20 01:18:26;;;;;;;;;;;4.30;99.90;;;;;;5051764;28;20336;-77
2021/04/20 01:20:53;;;;;;;;;;;4.30;99.90;;;;;;5053349;28;19966;-77
2021/04/20 01:23:21;;;;;;;;;;;4.20;99.90;;;;;;5052028;28;19962;-77
2021/04/20 01:25:47;;;;;;;;;;;4.10;99.90;;;;;;5051608;28;19904;-77
2021/04/20 01:28:12;;;;;;;;;;;4.10;99.90;;;;;;5051870;28;19927;-77
2021/04/20 01:30:38;;;;;;;;;;;4.00;99.90;;;;;;5052658;28;20008;-77
2021/04/20 01:33:04;;;;;;;;;;;4.10;99.90;;;;;;5053377;28;19905;-77
2021/04/20 01:35:32;;;;;;;;;;;4.10;99.90;;;;;;5053153;28;19915;-78
2021/04/20 01:37:59;;;;;;;;;;;4.10;99.90;;;;;;5051615;28;19905;-77
2021/04/20 01:40:25;;;;;;;;;;;4.00;99.90;;;;;;5051321;28;19917;-77
2021/04/20 01:42:51;;;;;;;;;;;4.10;99.90;;;;;;5051530;28;19958;-77
2021/04/20 01:45:17;;;;;;;;;;;4.10;99.90;;;;;;5050400;28;19905;-77
2021/04/20 01:47:42;;;;;;;;;;;4.10;99.90;;;;;;5051553;28;19904;-77
2021/04/20 01:50:08;;;;;;;;;;;4.10;99.90;;;;;;5052459;28;19904;-77
2021/04/20 01:52:33;;;;;;;;;;;4.10;99.90;;;;;;5051246;28;19920;-77
2021/04/20 01:54:59;;;;;;;;;;;4.10;99.90;;;;;;5052192;28;19905;-77
2021/04/20 01:57:25;;;;;;;;;;;4.10;99.90;;;;;;5051940;28;20207;-77
2021/04/20 01:59:51;;;;;;;;;;;4.00;99.90;;;;;;5051023;28;19905;-77
2021/04/20 02:02:16;;;;;;;;;;;4.10;99.90;;;;;;5052428;28;19915;-77
2021/04/20 02:04:42;;;;;;;;;;;4.10;99.90;;;;;;5052165;28;19909;-77
2021/04/20 02:07:07;;;;;;;;;;;4.10;99.90;;;;;;5051171;28;19905;-77
2021/04/20 02:09:33;;;;;;;;;;;4.00;99.90;;;;;;5051526;28;19999;-77
2021/04/20 02:11:59;;;;;;;;;;;4.00;99.90;;;;;;5052407;28;19928;-77
2021/04/20 02:14:25;;;;;;;;;;;4.00;99.90;;;;;;5050574;28;20380;-77
2021/04/20 02:16:51;;;;;;;;;;;4.00;99.90;;;;;;5054749;28;19909;-77
2021/04/20 02:19:16;;;;;;;;;;;3.90;99.90;;;;;;5052169;28;19905;-77
2021/04/20 02:21:42;;;;;;;;;;;3.90;99.90;;;;;;5050946;28;19908;-77
2021/04/20 02:24:09;;;;;;;;;;;3.90;99.90;;;;;;5050479;28;19908;-77
2021/04/20 02:26:38;;;;;;;;;;;3.80;99.90;;;;;;5051445;28;19904;-77
2021/04/20 02:29:05;;;;;;;;;;;3.80;99.90;;;;;;5051163;28;19940;-77
2021/04/20 02:31:34;;;;;;;;;;;3.80;99.90;;;;;;5052105;28;19913;-77
2021/04/20 02:34:00;;;;;;;;;;;3.80;99.90;;;;;;5050594;28;19905;-77
2021/04/20 02:36:25;;;;;;;;;;;3.80;99.90;;;;;;5051386;28;20414;-78
2021/04/20 02:38:51;;;;;;;;;;;3.70;99.90;;;;;;5050974;28;19908;-77
2021/04/20 02:41:17;;;;;;;;;;;3.70;99.90;;;;;;5050757;28;19909;-77
2021/04/20 02:43:44;;;;;;;;;;;3.70;99.90;;;;;;5052236;28;19905;-77
2021/04/20 02:46:10;;;;;;;;;;;3.70;99.90;;;;;;5052609;28;19905;-78
2021/04/20 02:48:35;;;;;;;;;;;3.60;99.90;;;;;;5063486;28;19905;-78
2021/04/20 02:51:01;;;;;;;;;;;3.60;99.90;;;;;;5058471;28;19940;-78
2021/04/20 02:53:27;;;;;;;;;;;3.60;99.90;;;;;;5064212;28;19951;-78
2021/04/20 02:55:52;;;;;;;;;;;3.50;99.90;;;;;;5057577;28;19963;-77
2021/04/20 02:58:20;;;;;;;;;;;3.50;99.90;;;;;;5054431;28;20003;-77
2021/04/20 03:00:49;;;;;;;;;;;3.50;99.90;;;;;;5055792;28;19909;-77
2021/04/20 03:03:16;;;;;;;;;;;3.40;99.90;;;;;;5054431;28;19905;-77
2021/04/20 03:05:42;;;;;;;;;;;3.50;99.90;;;;;;5053965;28;19908;-77
2021/04/20 03:08:07;;;;;;;;;;;3.40;99.90;;;;;;5055655;28;19905;-77
2021/04/20 03:10:35;;;;;;;;;;;3.40;99.90;;;;;;5055498;28;20352;-77
2021/04/20 03:13:01;;;;;;;;;;;3.40;99.90;;;;;;5055349;28;19905;-77
2021/04/20 03:15:27;;;;;;;;;;;3.40;99.90;;;;;;5053798;28;19950;-78
2021/04/20 03:17:52;;;;;;;;;;;3.40;99.90;;;;;;5054001;28;19982;-79
2021/04/20 03:20:18;;;;;;;;;;;3.30;99.90;;;;;;5053871;28;20367;-79
2021/04/20 03:22:45;;;;;;;;;;;3.30;99.90;;;;;;5055182;28;20003;-79
2021/04/20 03:25:10;;;;;;;;;;;3.20;99.90;;;;;;5054645;28;19905;-79
2021/04/20 03:27:37;;;;;;;;;;;3.30;99.90;;;;;;5054916;28;20378;-79
2021/04/20 03:30:03;;;;;;;;;;;3.30;99.90;;;;;;5053782;28;19978;-79
2021/04/20 03:32:29;;;;;;;;;;;3.30;99.90;;;;;;5053767;28;19905;-79
2021/04/20 03:35:01;;;;;;;;;;;3.20;99.90;;;;;;5053076;28;20347;-78
2021/04/20 03:37:30;;;;;;;;;;;3.20;99.90;;;;;;5053719;28;19905;-79
2021/04/20 03:39:58;;;;;;;;;;;3.20;99.90;;;;;;5053401;28;19911;-79
2021/04/20 03:42:26;;;;;;;;;;;3.10;99.90;;;;;;5053451;28;19912;-79
2021/04/20 03:44:53;;;;;;;;;;;3.10;99.90;;;;;;5052994;28;19908;-79
2021/04/20 03:47:25;;;;;;;;;;;3.10;99.90;;;;;;5053604;28;19904;-79
2021/04/20 03:49:53;;;;;;;;;;;3.10;99.90;;;;;;5053246;28;19909;-79
2021/04/20 03:52:28;;;;;;;;;;;3.00;99.90;;;;;;5054477;28;19920;-79
2021/04/20 03:54:55;;;;;;;;;;;3.00;99.90;;;;;;5054016;28;19956;-79
2021/04/20 03:57:21;;;;;;;;;;;3.00;99.90;;;;;;5054515;28;19973;-79
2021/04/20 03:59:47;;;;;;;;;;;3.00;99.90;;;;;;5053079;28;20368;-78
2021/04/20 04:02:13;;;;;;;;;;;3.10;99.90;;;;;;5053089;28;20011;-79
2021/04/20 04:04:41;;;;;;;;;;;3.10;99.90;;;;;;5052500;28;20352;-79
2021/04/20 04:07:07;;;;;;;;;;;3.20;99.90;;;;;;5053160;28;19905;-79
2021/04/20 04:09:33;;;;;;;;;;;3.20;99.90;;;;;;5053379;28;19916;-78
2021/04/20 04:12:05;;;;;;;;;;;3.20;99.90;;;;;;5053000;28;19905;-79
2021/04/20 04:14:31;;;;;;;;;;;3.20;99.90;;;;;;5052263;28;19904;-79
2021/04/20 04:17:00;;;;;;;;;;;3.20;99.90;;;;;;5052870;28;19912;-79
2021/04/20 04:19:30;;;;;;;;;;;3.20;99.90;;;;;;5052829;28;20360;-79
2021/04/20 04:22:03;;;;;;;;;;;3.30;99.90;;;;;;5052559;28;19915;-79
2021/04/20 04:24:31;;;;;;;;;;;3.30;99.90;;;;;;5052133;28;20423;-79
2021/04/20 04:26:57;;;;;;;;;;;3.30;99.90;;;;;;5053912;28;19999;-79
2021/04/20 04:29:24;;;;;;;;;;;3.30;99.90;;;;;;5053848;28;20371;-79
2021/04/20 04:31:51;;;;;;;;;;;3.20;99.90;;;;;;5053796;28;20315;-79
2021/04/20 04:34:17;;;;;;;;;;;3.30;99.90;;;;;;5052029;28;19963;-79
2021/04/20 04:36:43;;;;;;;;;;;3.20;99.90;;;;;;5052457;28;20557;-79
2021/04/20 04:39:18;;;;;;;;;;;3.30;99.90;;;;;;5052416;28;19908;-79
2021/04/20 04:41:44;;;;;;;;;;;3.30;99.90;;;;;;5053624;28;19948;-79
2021/04/20 04:44:10;;;;;;;;;;;3.40;99.90;;;;;;5051849;28;19955;-79
2021/04/20 04:46:36;;;;;;;;;;;3.40;99.90;;;;;;5050738;28;19904;-79
2021/04/20 04:49:02;;;;;;;;;;;3.40;99.90;;;;;;5050288;28;20497;-79
2021/04/20 04:51:28;;;;;;;;;;;3.40;99.90;;;;;;5051368;28;20304;-79
2021/04/20 04:53:55;;;;;;;;;;;3.50;99.90;;;;;;5050400;28;19905;-79
2021/04/20 04:56:21;;;;;;;;;;;3.50;99.90;;;;;;5052233;28;19905;-78
2021/04/20 04:58:46;;;;;;;;;;;3.50;99.90;;;;;;5051018;28;19905;-79
2021/04/20 05:01:13;;;;;;;;;;;3.60;99.90;;;;;;5050606;28;19944;-79
2021/04/20 05:03:39;;;;;;;;;;;3.60;99.90;;;;;;5050681;28;19916;-79
2021/04/20 05:06:05;;;;;;;;;;;3.70;99.90;;;;;;5050188;28;19976;-79
2021/04/20 05:08:30;;;;;;;;;;;3.90;99.90;;;;;;5052008;28;19908;-79
2021/04/20 05:11:03;;;;;;;;;;;3.90;99.90;;;;;;5051744;28;19912;-79
2021/04/20 05:13:29;;;;;;;;;;;4.00;99.90;;;;;;5051742;28;19912;-79
2021/04/20 05:15:55;;;;;;;;;;;4.10;99.90;;;;;;5051433;28;19904;-79
2021/04/20 05:18:22;;;;;;;;;;;4.30;99.90;;;;;;5050567;28;19911;-78
2021/04/20 05:20:48;;;;;;;;;;;4.50;99.90;;;;;;5050165;28;19908;-78
2021/04/20 05:23:18;;;;;;;;;;;4.60;99.90;;;;;;5051736;28;19970;-80
2021/04/20 05:25:43;;;;;;;;;;;4.80;99.90;;;;;;5050085;28;19909;-79
2021/04/20 05:28:09;;;;;;;;;;;5.00;99.90;;;;;;5050640;28;20421;-80
2021/04/20 05:30:35;;;;;;;;;;;5.10;99.90;;;;;;5051509;28;20394;-79
2021/04/20 05:33:01;;;;;;;;;;;5.30;99.90;;;;;;5051554;28;20554;-78
2021/04/20 05:35:27;;;;;;;;;;;5.70;99.90;;;;;;5051386;28;19919;-78
2021/04/20 05:37:52;;;;;;;;;;;6.30;99.90;;;;;;5051532;28;19995;-79
2021/04/20 05:40:22;;;;;;;;;;;7.00;99.90;;;;;;5050141;28;20367;-78
2021/04/20 05:42:50;;;;;;;;;;;7.50;99.90;;;;;;5050177;28;20435;-77
2021/04/20 05:45:16;;;;;;;;;;;7.70;99.90;;;;;;5049966;28;19909;-75
2021/04/20 05:47:44;;;;;;;8.93;5.50;;;8.10;99.90;;;;;;5050836;28;20340;-78
2021/04/20 05:50:15;;;;;;;7.85;5.82;;;7.90;99.90;;;;;;5049800;28;20220;-78
2021/04/20 05:52:41;;;;;;;9.30;6.00;;;7.60;99.90;;;;;;5049494;28;20049;-77
2021/04/20 05:55:07;;;;;;;9.80;5.63;;;7.40;99.90;;;;;;5047788;28;20021;-79
2021/04/20 05:57:33;;;;;;;9.65;5.85;;;7.60;99.90;;;;;;5046015;28;20057;-79
2021/04/20 06:00:00;;;;;;;7.88;5.32;;;8.20;99.90;;;;;;5050307;28;20115;-79
2021/04/20 06:02:29;;;;;;;;;;;9.20;99.90;;;;;;5048590;28;20029;-78
2021/04/20 06:04:56;;;;;;;;;;;10.80;99.90;;;;;;5048404;28;20276;-79
2021/04/20 06:07:23;;;;;;;;;;;12.00;99.90;;;;;;5048641;28;19915;-78
2021/04/20 06:09:50;;;;;;;9.77;5.53;;;13.00;99.90;;;;;;5049807;28;19905;-77
2021/04/20 06:12:15;;;;;;;7.93;5.25;;;13.50;99.90;;;;;;5051030;28;20032;-80
2021/04/20 06:14:42;;;;;;;6.82;5.32;;;13.70;99.90;;;;;;5048438;28;20037;-78
2021/04/20 06:17:12;;;;;;;6.55;4.45;;;14.10;99.90;;;;;;5050492;28;20454;-79
2021/04/20 06:19:38;;;;;;;6.60;5.10;;;14.60;99.90;;;;;;5049062;28;20029;-79
2021/04/20 06:22:06;;;;;;;6.82;4.93;;;14.70;99.90;;;;;;5046349;28;20366;-80
2021/04/20 06:24:32;;;;;;;8.27;4.83;;;14.50;99.90;;;;;;5048255;28;20449;-80
2021/04/20 06:26:58;;;;;;;7.55;5.40;;;15.30;99.90;;;;;;5038896;28;19995;-80
2021/04/20 06:29:26;;;;;;;7.70;4.93;;;15.60;99.90;;;;;;5032089;28;20017;-79
2021/04/20 06:31:53;;;;;;;6.55;4.97;;;15.60;99.90;;;;;;5032667;28;20071;-82
2021/04/20 06:34:19;;;;;;;6.93;4.95;;;15.90;99.90;;;;;;5034954;28;20031;-81
2021/04/20 06:36:45;;;;;;;8.05;5.53;;;16.60;99.90;;;;;;5034336;28;20033;-82
2021/04/20 06:39:11;;;;;;;6.25;4.70;;;17.20;99.90;;;;;;5035767;28;20089;-82
2021/04/20 06:41:39;;;;;;;8.17;5.30;;;17.50;99.90;;;;;;5035697;28;20095;-81
2021/04/20 06:44:09;;;;;;;7.97;5.47;;;18.10;97.80;;;;;;5051161;28;20049;-80
2021/04/20 06:46:59;;;;;;;7.53;4.95;;;18.30;97.30;;;;;;5035960;28;20026;-81
2021/04/20 06:49:32;;;;;;;7.45;5.53;;;18.60;94.10;;;;;;5050862;28;20025;-83
2021/04/20 06:52:04;;;;;;;6.65;5.28;;;19.70;91.30;;;;;;5034585;28;20044;-80
2021/04/20 06:54:34;;;;;;;6.85;4.82;;;19.50;90.00;;;;;;5050239;28;20021;-83
2021/04/20 06:57:13;;;;;;;6.60;5.07;;;19.60;85.50;;;;;;5036676;28;20047;-79
2021/04/20 07:00:03;;;;;;;7.85;5.65;;;19.30;88.00;;;;;;5050884;28;20048;-79
2021/04/20 07:02:46;;;;;;;8.27;5.50;;;19.80;90.60;;;;;;5034019;28;20118;-79
2021/04/20 07:05:12;;;;;;;6.72;5.57;;;19.50;87.60;;;;;;5033319;28;20229;-80
2021/04/20 07:07:53;;;;;;;7.97;5.68;;;19.80;88.10;;;;;;5051946;28;20071;-80
2021/04/20 07:10:38;;;;;;;9.13;6.68;;;20.70;84.30;;;;;;5050842;28;20026;-81
2021/04/20 07:13:07;;;;;;;7.40;5.78;;;20.40;85.10;;;;;;5051069;28;20205;-80
2021/04/20 07:15:34;;;;;;;6.68;4.97;;;20.70;79.60;;;;;;5050507;28;20048;-79
2021/04/20 07:18:09;;;;;;;6.97;5.38;;;21.10;79.10;;;;;;5034694;28;20491;-83
2021/04/20 07:20:53;;;;;;;8.60;6.00;;;22.10;72.70;;;;;;5033364;28;20036;-79
2021/04/20 07:23:39;;;;;;;8.27;6.03;;;22.10;71.30;;;;;;5034237;28;20132;-80
2021/04/20 07:26:05;;;;;;;;;;;22.10;73.50;;;;;;5035133;28;20026;-79
2021/04/20 07:28:44;;;;;;;;;;;22.20;76.40;;;;;;5034689;28;19913;-80
2021/04/20 07:31:28;;;;;;;;;;;22.60;72.30;;;;;;5036978;28;19905;-81
2021/04/20 07:34:17;;;;;;;9.85;6.32;;;22.70;69.90;;;;;;5035995;28;19905;-79
2021/04/20 07:37:27;;;;;;;9.43;6.40;;;22.40;71.50;;;;;;5034391;28;20021;-79
2021/04/20 07:40:17;;;;;;;7.22;5.78;;;22.00;71.10;;;;;;5034345;28;20049;-82
2021/04/20 07:43:11;;;;;;;7.57;6.20;;;21.60;70.10;;;;;;5034485;28;20033;-81
2021/04/20 07:45:45;;;;;;;10.00;6.20;;;22.10;69.40;;;;;;5039746;28;20032;-82
2021/04/20 07:48:14;;;;;;;;;;;22.50;70.60;;;;;;5041213;28;19909;-82
2021/04/20 07:50:45;;;;;;;;;;;22.80;68.50;;;;;;5040278;28;19927;-82
2021/04/20 07:53:22;;;;;;;8.50;6.45;;;22.10;68.80;;;;;;5041296;28;19909;-81
2021/04/20 07:56:19;;;;;;;8.30;6.07;;;22.60;67.00;;;;;;5038280;28;20032;-81
2021/04/20 07:58:49;;;;;;;9.48;6.43;;;22.70;68.00;;;;;;5034371;28;20068;-84
2021/04/20 08:01:46;;;;;;;9.32;6.40;;;22.30;67.10;;;;;;5035003;28;20374;-79
2021/04/20 08:04:39;;;;;;;8.45;6.28;;;22.90;69.00;;;;;;5033008;28;20053;-80
2021/04/20 08:07:10;;;;;;;;;;;23.30;66.40;;;;;;5034197;28;20021;-80
2021/04/20 08:09:37;;;;;;;;;;;23.60;64.00;;;;;;5034650;28;19909;-80
2021/04/20 08:12:05;;;;;;;;;;;23.90;65.40;;;;;;5033889;28;20459;-82
2021/04/20 08:14:46;;;;;;;11.15;7.30;;;23.40;64.60;;;;;;5031876;28;19905;-80
2021/04/20 08:17:13;;;;;;;;;;;23.40;66.90;;;;;;5034204;28;20022;-82
2021/04/20 08:19:59;;;;;;;;;;;23.50;64.70;;;;;;5050102;28;19952;-80
2021/04/20 08:22:25;;;;;;;;;;;23.80;66.10;;;;;;5033869;28;19913;-80
2021/04/20 08:25:08;;;;;;;;;;;24.60;61.70;;;;;;5049378;28;19905;-80
2021/04/20 08:27:33;;;;;;;;;;;25.60;58.90;;;;;;5050685;28;19912;-82
2021/04/20 08:30:03;;;;;;;;;;;25.70;59.30;;;;;;5043555;28;19913;-79
2021/04/20 08:32:29;;;;;;;;;;;25.20;58.60;;;;;;5037847;28;19905;-81
2021/04/20 08:34:59;;;;;;;;;;;25.10;60.10;;;;;;5053699;28;19905;-80
2021/04/20 08:37:34;;;;;;;10.20;7.45;;;25.40;58.40;;;;;;5038850;28;19909;-82
2021/04/20 08:40:23;;;;;;;11.57;7.77;;;25.40;58.00;;;;;;5053405;28;20459;-82
2021/04/20 08:42:50;;;;;;;;;;;26.20;56.20;;;;;;5054196;28;20382;-82
2021/04/20 08:45:15;;;;;;;;;;;25.50;57.00;;;;;;5039228;28;19911;-82
2021/04/20 08:47:49;;;;;;;;;;;25.60;57.30;;;;;;5074868;28;19943;-82
2021/04/20 08:50:18;;;;;;;;;;;26.10;57.30;;;;;;5077365;28;19905;-81
2021/04/20 08:53:16;;;;;;;;;;;26.80;55.80;;;;;;5079390;28;19912;-82
2021/04/20 08:55:41;;;;;;;;;;;26.30;55.10;;;;;;5034386;28;19908;-81
2021/04/20 08:58:12;;;;;;;;;;;24.90;59.80;;;;;;5077688;28;19950;-82
2021/04/20 09:00:42;;;;;;;;;;;25.50;59.00;;;;;;5075055;28;19912;-79
2021/04/20 09:03:17;;;;;;;;;;;25.80;58.10;;;;;;5073738;28;19928;-80
2021/04/20 09:05:56;;;;;;;;;;;25.30;58.80;;;;;;5073699;28;19904;-82
2021/04/20 09:08:35;;;;;;;15.98;10.60;;;25.50;57.70;;;;;;5076572;28;19912;-80
2021/04/20 09:11:11;;;;;;;13.75;9.77;;;27.00;55.50;;;;;;5079302;28;20031;-83
2021/04/20 09:13:43;;;;;;;14.00;10.15;;;27.90;55.10;;;;;;5078734;28;20479;-83
2021/04/20 09:16:15;;;;;;;13.68;10.32;;;28.50;55.80;;;;;;5059682;28;20504;-80
2021/04/20 09:18:43;;;;;;;13.98;9.50;;;27.90;54.20;;;;;;5056011;28;20028;-80
2021/04/20 09:21:30;;;;;;;16.38;10.65;;;27.20;55.80;;;;;;5055401;28;19931;-82
2021/04/20 09:24:07;;;;;;;13.55;10.40;;;27.80;54.70;;;;;;5055647;28;20025;-81
2021/04/20 09:26:43;;;;;;;;;;;27.30;52.90;;;;;;5055572;28;20021;-79
2021/04/20 09:29:12;;;;;;;;;;;27.60;53.90;;;;;;5053574;28;20418;-80
2021/04/20 09:31:41;;;;;;;;;;;27.20;54.50;;;;;;5052087;28;19911;-80
2021/04/20 09:34:08;;;;;;;;;;;26.90;54.10;;;;;;5052076;28;19912;-80
2021/04/20 09:36:34;;;;;;;;;;;28.50;53.20;;;;;;5050710;28;19928;-80
2021/04/20 09:39:01;;;;;;;;;;;29.20;51.90;;;;;;5053305;28;19958;-81
2021/04/20 09:41:29;;;;;;;;;;;28.50;51.40;;;;;;5053022;28;20070;-80
2021/04/20 09:44:13;;;;;;;;;;;28.30;52.70;;;;;;5052290;28;19904;-82
2021/04/20 09:46:50;;;;;;;;;;;29.00;50.60;;;;;;5053167;28;19930;-79
2021/04/20 09:49:35;;;;;;;;;;;28.50;51.80;;;;;;5054420;28;19904;-82
2021/04/20 09:52:02;;;;;;;;;;;28.60;51.10;;;;;;5055877;28;19935;-82
2021/04/20 09:54:29;;;;;;;;;;;30.00;49.00;;;;;;5052896;28;19909;-79
2021/04/20 09:56:56;;;;;;;;;;;29.40;49.30;;;;;;5055691;28;20001;-83
2021/04/20 10:00:05;;;;;;;14.13;9.05;;;27.80;51.60;;;;;;5050595;28;19912;-80
2021/04/20 10:02:52;;;;;;;14.15;9.65;;;27.50;50.50;;;;;;5013751;28;20045;-80
2021/04/20 10:05:46;;;;;;;14.48;9.80;;;27.20;50.90;;;;;;5051828;28;20025;-80
2021/04/20 10:08:44;;;;;;;12.43;8.25;;;27.20;50.40;;;;;;5050472;28;20020;-81
2021/04/20 10:11:31;;;;;;;13.50;9.50;;;27.20;52.30;;;;;;5049149;28;20029;-79
2021/04/20 10:14:11;;;;;;;;;;;27.80;50.20;;;;;;5047005;28;19909;-83
2021/04/20 10:16:41;;;;;;;;;;;27.50;51.70;;;;;;5046607;28;19905;-80
2021/04/20 10:19:15;;;;;;;;;;;27.30;51.50;;;;;;5048990;28;19905;-80
2021/04/20 10:22:01;;;;;;;10.50;8.38;;;28.10;50.10;;;;;;5047129;28;20098;-79
2021/04/20 10:24:29;;;;;;;;;;;28.80;49.50;;;;;;5064936;28;20499;-80
2021/04/20 10:27:12;;;;;;;11.40;8.43;;;26.50;50.00;;;;;;5049244;28;19912;-82
2021/04/20 10:29:47;;;;;;;;;;;27.40;49.10;;;;;;5048572;28;20024;-83
2021/04/20 10:32:19;;;;;;;;;;;27.00;49.50;;;;;;5050176;28;19904;-80
2021/04/20 10:34:51;;;;;;;;;;;26.70;50.80;;;;;;5050237;28;19912;-82
2021/04/20 10:37:28;;;;;;;;;;;26.70;49.80;;;;;;5042820;28;20391;-79
2021/04/20 10:39:54;;;;;;;;;;;26.80;47.90;;;;;;5049885;28;19997;-83
2021/04/20 10:42:27;;;;;;;;;;;27.40;47.70;;;;;;5051855;28;19915;-83
2021/04/20 10:44:54;;;;;;;;;;;26.00;50.00;;;;;;5056969;28;20506;-82
2021/04/20 10:47:20;;;;;;;;;;;25.20;49.20;;;;;;5052329;28;19905;-83
2021/04/20 10:49:50;;;;;;;;;;;23.60;52.20;;;;;;5051612;28;20388;-82
2021/04/20 10:52:17;;;;;;;9.77;6.38;;;23.80;56.70;;;;;;5051373;28;19913;-79
2021/04/20 10:54:45;;;;;;;9.40;6.10;;;24.70;52.00;;;;;;5052368;28;20044;-80
2021/04/20 10:57:11;;;;;;;;;;;26.70;51.20;;;;;;5048517;28;20017;-83
2021/04/20 10:59:39;;;;;;;;;;;26.90;49.50;;;;;;5047216;28;19909;-80
2021/04/20 11:02:06;;;;;;;;;;;26.80;48.30;;;;;;5051532;28;19917;-80
2021/04/20 11:04:33;;;;;;;;;;;27.30;49.30;;;;;;5051621;28;19932;-82
2021/04/20 11:07:19;;;;;;;;;;;27.90;46.70;;;;;;5051235;28;19927;-79
2021/04/20 11:09:45;;;;;;;;;;;27.70;48.00;;;;;;5050795;28;19905;-80
2021/04/20 11:12:18;;;;;;;;;;;27.50;47.10;;;;;;5051192;28;19989;-80
2021/04/20 11:14:50;;;;;;;8.85;6.45;;;27.80;49.10;;;;;;5046883;28;20394;-79
2021/04/20 11:17:19;;;;;;;;;;;27.20;47.70;;;;;;5046778;28;20293;-79
2021/04/20 11:19:46;;;;;;;;;;;27.10;46.80;;;;;;5054325;28;19911;-81
2021/04/20 11:22:13;;;;;;;;;;;27.80;47.90;;;;;;5054185;28;19912;-80
2021/04/20 11:24:40;;;;;;;;;;;26.90;46.60;;;;;;5053386;28;19967;-82
2021/04/20 11:27:09;;;;;;;;;;;25.80;49.60;;;;;;5056308;28;19909;-81
2021/04/20 11:29:37;;;;;;;;;;;25.10;51.20;;;;;;5056084;28;19905;-81
2021/04/20 11:32:04;;;;;;;;;;;25.50;50.60;;;;;;5054526;28;19913;-81
2021/04/20 11:34:32;;;;;;;;;;;26.00;51.10;;;;;;5053319;28;19905;-80
2021/04/20 11:37:07;;;;;;;7.78;5.53;;;26.50;49.50;;;;;;5057103;28;19908;-80
2021/04/20 11:39:44;;;;;;;9.30;6.03;;;26.70;48.00;;;;;;5071641;28;20382;-83
2021/04/20 11:42:27;;;;;;;8.07;5.80;;;26.90;48.60;;;;;;5054677;28;20017;-81
2021/04/20 11:45:17;;;;;;;8.73;6.13;;;26.80;47.20;;;;;;5054519;28;20025;-82
2021/04/20 11:48:16;;;;;;;10.73;5.90;;;27.30;46.10;;;;;;5055655;28;20037;-81
2021/04/20 11:50:43;;;;;;;;;;;26.30;48.50;;;;;;5041169;28;20520;-82
2021/04/20 11:53:11;;;;;;;;;;;25.80;48.90;;;;;;5055958;28;19974;-81
2021/04/20 11:55:38;;;;;;;;;;;25.40;48.70;;;;;;5058264;28;19928;-81
2021/04/20 11:58:05;;;;;;;;;;;24.40;50.90;;;;;;5056649;28;20376;-80
2021/04/20 12:00:31;;;;;;;;;;;23.60;54.00;;;;;;5055020;28;19905;-80
2021/04/20 12:03:05;;;;;;;;;;;23.10;51.50;;;;;;5054511;28;19908;-80
2021/04/20 12:05:31;;;;;;;;;;;22.70;54.60;;;;;;5054005;28;20050;-80
2021/04/20 12:07:56;;;;;;;;;;;21.80;59.70;;;;;;5056655;28;19932;-80
2021/04/20 12:10:22;;;;;;;;;;;21.10;55.80;;;;;;5054735;28;19904;-82
2021/04/20 12:12:52;;;;;;;;;;;20.50;57.00;;;;;;5055221;28;19958;-81
2021/04/20 12:15:18;;;;;;;;;;;20.00;59.50;;;;;;5040996;28;20003;-82
2021/04/20 12:17:45;;;;;;;;;;;20.30;59.60;;;;;;5035646;28;19905;-84
2021/04/20 12:20:13;;;;;;;;;;;19.80;58.70;;;;;;5054337;28;20430;-80
2021/04/20 12:22:39;;;;;;;;;;;20.00;60.10;;;;;;5053412;28;19916;-80
2021/04/20 12:25:08;;;;;;;;;;;20.20;62.70;;;;;;5053086;28;19905;-81
2021/04/20 12:27:34;;;;;;;;;;;20.70;59.10;;;;;;5053087;28;19908;-80
2021/04/20 12:30:01;;;;;;;;;;;20.70;59.80;;;;;;5052907;28;19904;-80
2021/04/20 12:32:30;;;;;;;;;;;20.70;58.10;;;;;;5054845;28;19905;-79
2021/04/20 12:34:56;;;;;;;;;;;20.70;57.00;;;;;;5052822;28;19905;-80
2021/04/20 12:37:23;;;;;;;;;;;20.30;59.30;;;;;;5053553;28;20003;-80
2021/04/20 12:39:53;;;;;;;;;;;20.40;61.00;;;;;;5053964;28;19905;-80
2021/04/20 12:42:19;;;;;;;;;;;20.60;59.00;;;;;;5054518;28;19935;-81
2021/04/20 12:44:47;;;;;;;;;;;20.40;59.50;;;;;;5052969;28;20019;-81
2021/04/20 12:47:13;;;;;;;;;;;20.10;59.50;;;;;;5054665;28;20395;-80
2021/04/20 12:49:43;;;;;;;;;;;20.00;58.60;;;;;;5053972;28;19905;-80
2021/04/20 12:52:10;;;;;;;;;;;19.90;57.50;;;;;;5053029;28;19912;-81
2021/04/20 12:54:39;;;;;;;;;;;19.70;60.00;;;;;;5052752;28;19904;-80
2021/04/20 12:57:06;;;;;;;;;;;19.30;60.30;;;;;;5051867;28;20015;-82
2021/04/20 12:59:32;;;;;;;;;;;20.00;65.50;;;;;;5056349;28;19917;-79
2021/04/20 13:01:59;;;;;;;;;;;20.40;63.40;;;;;;5051025;28;19908;-80
2021/04/20 13:04:27;;;;;;;;;;;20.20;63.70;;;;;;5050185;28;19912;-81
2021/04/20 13:06:53;;;;;;;;;;;19.80;65.10;;;;;;5052023;28;19909;-79
2021/04/20 13:09:23;;;;;;;;;;;19.90;63.90;;;;;;5051226;28;20414;-80
2021/04/20 13:11:48;;;;;;;;;;;20.10;65.00;;;;;;5051404;28;20426;-80
2021/04/20 13:14:14;;;;;;;;;;;20.20;64.60;;;;;;5050603;28;19909;-80
2021/04/20 13:16:40;;;;;;;;;;;20.60;64.30;;;;;;5051376;28;19920;-80
2021/04/20 13:19:07;;;;;;;;;;;20.80;61.70;;;;;;5051222;28;20022;-80
2021/04/20 13:21:33;;;;;;;;;;;20.90;62.40;;;;;;5052231;28;19931;-80
2021/04/20 13:24:01;;;;;;;;;;;20.90;61.30;;;;;;5050821;28;20348;-82
2021/04/20 13:26:27;;;;;;;;;;;20.80;62.50;;;;;;5051251;28;20425;-82
2021/04/20 13:28:53;;;;;;;;;;;20.80;60.30;;;;;;5052941;28;19905;-79
2021/04/20 13:31:24;;;;;;;;;;;21.00;61.30;;;;;;5051411;28;20261;-80
2021/04/20 13:34:12;;;;;;;;;;;21.40;57.70;;;;;;5050944;28;19947;-82
2021/04/20 13:36:42;;;;;;;;;;;20.90;59.50;;;;;;5048517;28;19904;-83
2021/04/20 13:39:15;;;;;;;;;;;20.40;59.90;;;;;;5050291;28;19913;-82
2021/04/20 13:41:51;;;;;;;;;;;20.90;60.60;;;;;;5049798;28;19913;-80
2021/04/20 13:44:21;;;;;;;;;;;20.80;59.90;;;;;;5049945;28;20368;-80
2021/04/20 13:46:47;;;;;;;;;;;20.70;58.10;;;;;;5050585;28;19966;-82
2021/04/20 13:49:13;;;;;;;;;;;20.60;59.30;;;;;;5051059;28;19909;-82
2021/04/20 13:51:42;;;;;;;;;;;20.30;59.50;;;;;;5049847;28;19947;-82
2021/04/20 13:54:08;;;;;;;;;;;20.40;60.70;;;;;;5049674;28;20284;-79
2021/04/20 13:56:35;;;;;;;;;;;21.00;61.80;;;;;;5050914;28;19905;-81
2021/04/20 13:59:04;;;;;;;;;;;21.20;58.40;;;;;;5051139;28;20019;-81
2021/04/20 14:01:31;;;;;;;;;;;20.70;58.90;;;;;;5043642;28;20370;-82
2021/04/20 14:04:08;;;;;;;;;;;20.50;60.70;;;;;;5049457;28;19977;-81
2021/04/20 14:06:36;;;;;;;;;;;19.70;64.10;;;;;;5066998;28;19909;-82
2021/04/20 14:09:11;;;;;;;;;;;19.20;61.40;;;;;;5061618;28;19918;-80
2021/04/20 14:12:03;;;;;;;;;;;19.40;59.00;;;;;;5050677;28;19916;-85
2021/04/20 14:14:30;;;;;;;;;;;19.50;60.10;;;;;;5055748;28;19909;-81
2021/04/20 14:16:57;;;;;;;;;;;19.70;62.30;;;;;;5061545;28;19908;-81